sensor_id;sensor_type;location;lat;lon;timestamp;pressure;altitude;pressure_sealevel;temperature;humidity
52949;BME280;38812;50.942;3.644;2023-03-23T00:02:26;100175.50;;;11.85;100.00
52949;BME280;38812;50.942;3.644;2023-03-23T00:04:52;100181.63;;;11.86;100.00
52949;BME280;38812;50.942;3.644;2023-03-23T00:07:19;100174.94;;;11.76;100.00
52949;BME280;38812;50.942;3.644;2023-03-23T00:09:47;100191.63;;;11.76;100.00
52949;BME280;38812;50.942;3.644;2023-03-23T00:12:12;100187.28;;;11.74;100.00
52949;BME280;38812;50.942;3.644;2023-03-23T00:14:40;100178.34;;;11.79;100.00
52949;BME280;38812;50.942;3.644;2023-03-23T00:17:08;100189.69;;;11.81;100.00
52949;BME280;38812;50.942;3.644;2023-03-23T00:19:37;100175.84;;;11.76;100.00
52949;BME280;38812;50.942;3.644;2023-03-23T00:22:12;100185.34;;;11.80;100.00
52949;BME280;38812;50.942;3.644;2023-03-23T00:24:37;100188.88;;;11.79;100.00
52949;BME280;38812;50.942;3.644;2023-03-23T00:27:03;100191.50;;;11.79;100.00
52949;BME280;38812;50.942;3.644;2023-03-23T00:29:28;100170.47;;;11.79;100.00
52949;BME280;38812;50.942;3.644;2023-03-23T00:31:53;100165.44;;;11.72;100.00
52949;BME280;38812;50.942;3.644;2023-03-23T00:34:22;100177.88;;;11.68;100.00
52949;BME280;38812;50.942;3.644;2023-03-23T00:36:51;100189.31;;;11.67;100.00
52949;BME280;38812;50.942;3.644;2023-03-23T00:39:19;100188.50;;;11.65;100.00
52949;BME280;38812;50.942;3.644;2023-03-23T00:41:44;100186.47;;;11.72;100.00
52949;BME280;38812;50.942;3.644;2023-03-23T00:44:11;100173.56;;;11.65;100.00
52949;BME280;38812;50.942;3.644;2023-03-23T00:46:45;100171.00;;;11.64;100.00
52949;BME280;38812;50.942;3.644;2023-03-23T00:49:12;100170.13;;;11.63;100.00
52949;BME280;38812;50.942;3.644;2023-03-23T00:51:39;100169.22;;;11.64;100.00
52949;BME280;38812;50.942;3.644;2023-03-23T00:54:05;100165.94;;;11.58;100.00
52949;BME280;38812;50.942;3.644;2023-03-23T00:56:30;100177.44;;;11.55;100.00
52949;BME280;38812;50.942;3.644;2023-03-23T00:58:56;100178.50;;;11.50;100.00
52949;BME280;38812;50.942;3.644;2023-03-23T01:01:21;100160.28;;;11.45;100.00
52949;BME280;38812;50.942;3.644;2023-03-23T01:03:47;100166.34;;;11.47;100.00
52949;BME280;38812;50.942;3.644;2023-03-23T01:06:12;100167.94;;;11.51;100.00
52949;BME280;38812;50.942;3.644;2023-03-23T01:08:41;100175.56;;;11.59;100.00
52949;BME280;38812;50.942;3.644;2023-03-23T01:11:13;100156.94;;;11.65;100.00
52949;BME280;38812;50.942;3.644;2023-03-23T01:13:40;100139.41;;;11.64;100.00
52949;BME280;38812;50.942;3.644;2023-03-23T01:16:07;100146.50;;;11.62;100.00
52949;BME280;38812;50.942;3.644;2023-03-23T01:18:33;100131.81;;;11.56;100.00
52949;BME280;38812;50.942;3.644;2023-03-23T01:21:07;100132.44;;;11.63;100.00
52949;BME280;38812;50.942;3.644;2023-03-23T01:23:33;100134.97;;;11.66;100.00
52949;BME280;38812;50.942;3.644;2023-03-23T01:26:11;100117.56;;;11.62;100.00
52949;BME280;38812;50.942;3.644;2023-03-23T01:28:40;100133.13;;;11.68;100.00
52949;BME280;38812;50.942;3.644;2023-03-23T01:31:08;100135.63;;;11.71;100.00
52949;BME280;38812;50.942;3.644;2023-03-23T01:33:34;100125.25;;;11.68;100.00
52949;BME280;38812;50.942;3.644;2023-03-23T01:36:05;100149.59;;;11.73;100.00
52949;BME280;38812;50.942;3.644;2023-03-23T01:38:32;100137.25;;;11.75;100.00
52949;BME280;38812;50.942;3.644;2023-03-23T01:40:58;100143.38;;;11.76;100.00
52949;BME280;38812;50.942;3.644;2023-03-23T01:43:23;100151.22;;;11.77;100.00
52949;BME280;38812;50.942;3.644;2023-03-23T01:45:49;100150.44;;;11.74;100.00
52949;BME280;38812;50.942;3.644;2023-03-23T01:48:33;100160.91;;;11.75;100.00
52949;BME280;38812;50.942;3.644;2023-03-23T01:51:10;100151.41;;;11.71;100.00
52949;BME280;38812;50.942;3.644;2023-03-23T01:53:51;100140.59;;;11.80;100.00
52949;BME280;38812;50.942;3.644;2023-03-23T01:56:21;100149.41;;;11.79;100.00
52949;BME280;38812;50.942;3.644;2023-03-23T01:58:51;100156.53;;;11.76;100.00
52949;BME280;38812;50.942;3.644;2023-03-23T02:01:18;100166.91;;;11.80;100.00
52949;BME280;38812;50.942;3.644;2023-03-23T02:03:45;100158.09;;;11.81;100.00
52949;BME280;38812;50.942;3.644;2023-03-23T02:06:12;100167.03;;;11.77;100.00
52949;BME280;38812;50.942;3.644;2023-03-23T02:08:37;100165.44;;;11.72;100.00
52949;BME280;38812;50.942;3.644;2023-03-23T02:11:32;100168.00;;;11.73;100.00
52949;BME280;38812;50.942;3.644;2023-03-23T02:13:58;100161.66;;;11.80;100.00
52949;BME280;38812;50.942;3.644;2023-03-23T02:25:17;100154.78;;;11.76;100.00
52949;BME280;38812;50.942;3.644;2023-03-23T02:30:37;100153.94;;;11.74;100.00
52949;BME280;38812;50.942;3.644;2023-03-23T02:38:56;100143.38;;;11.76;100.00
52949;BME280;38812;50.942;3.644;2023-03-23T02:41:29;100159.16;;;11.76;100.00
52949;BME280;38812;50.942;3.644;2023-03-23T02:43:56;100152.78;;;11.83;100.00
52949;BME280;38812;50.942;3.644;2023-03-23T02:46:23;100147.59;;;11.81;100.00
52949;BME280;38812;50.942;3.644;2023-03-23T02:48:50;100150.22;;;11.81;100.00
52949;BME280;38812;50.942;3.644;2023-03-23T02:51:20;100142.50;;;11.75;100.00
52949;BME280;38812;50.942;3.644;2023-03-23T02:53:47;100143.34;;;11.77;100.00
52949;BME280;38812;50.942;3.644;2023-03-23T02:56:16;100138.78;;;11.82;100.00
52949;BME280;38812;50.942;3.644;2023-03-23T02:58:42;100142.25;;;11.83;100.00
52949;BME280;38812;50.942;3.644;2023-03-23T03:03:52;100122.28;;;11.77;100.00
52949;BME280;38812;50.942;3.644;2023-03-23T03:09:05;100130.97;;;11.79;100.00
52949;BME280;38812;50.942;3.644;2023-03-23T03:11:34;100122.13;;;11.82;100.00
52949;BME280;38812;50.942;3.644;2023-03-23T03:14:03;100129.97;;;11.83;100.00
52949;BME280;38812;50.942;3.644;2023-03-23T03:16:37;100123.09;;;11.79;100.00
52949;BME280;38812;50.942;3.644;2023-03-23T03:19:23;100142.31;;;11.81;100.00
52949;BME280;38812;50.942;3.644;2023-03-23T03:21:52;100132.75;;;11.79;100.00
52949;BME280;38812;50.942;3.644;2023-03-23T03:24:20;100144.03;;;11.82;100.00
52949;BME280;38812;50.942;3.644;2023-03-23T03:26:48;100135.97;;;11.87;100.00
52949;BME280;38812;50.942;3.644;2023-03-23T03:29:18;100132.72;;;11.80;100.00
52949;BME280;38812;50.942;3.644;2023-03-23T03:31:45;100136.94;;;11.84;100.00
52949;BME280;38812;50.942;3.644;2023-03-23T03:34:14;100145.00;;;11.80;100.00
52949;BME280;38812;50.942;3.644;2023-03-23T03:36:43;100139.84;;;11.77;100.00
52949;BME280;38812;50.942;3.644;2023-03-23T03:39:12;100132.22;;;11.69;100.00
52949;BME280;38812;50.942;3.644;2023-03-23T03:41:38;100154.84;;;11.73;100.00
52949;BME280;38812;50.942;3.644;2023-03-23T03:44:04;100148.72;;;11.73;100.00
52949;BME280;38812;50.942;3.644;2023-03-23T03:46:30;100148.84;;;11.69;100.00
52949;BME280;38812;50.942;3.644;2023-03-23T03:48:57;100138.66;;;11.60;100.00
52949;BME280;38812;50.942;3.644;2023-03-23T03:51:25;100158.75;;;11.63;100.00
52949;BME280;38812;50.942;3.644;2023-03-23T03:53:50;100156.94;;;11.65;100.00
52949;BME280;38812;50.942;3.644;2023-03-23T03:56:16;100149.16;;;11.62;100.00
52949;BME280;38812;50.942;3.644;2023-03-23T03:58:42;100158.97;;;11.57;100.00
52949;BME280;38812;50.942;3.644;2023-03-23T04:01:09;100153.69;;;11.57;100.00
52949;BME280;38812;50.942;3.644;2023-03-23T04:03:39;100154.63;;;11.56;100.00
52949;BME280;38812;50.942;3.644;2023-03-23T04:06:05;100153.06;;;11.50;100.00
52949;BME280;38812;50.942;3.644;2023-03-23T04:08:30;100159.38;;;11.46;100.00
52949;BME280;38812;50.942;3.644;2023-03-23T04:10:57;100165.53;;;11.45;100.00
52949;BME280;38812;50.942;3.644;2023-03-23T04:13:22;100152.84;;;11.31;100.00
52949;BME280;38812;50.942;3.644;2023-03-23T04:15:48;100154.25;;;11.42;100.00
52949;BME280;38812;50.942;3.644;2023-03-23T04:18:15;100159.88;;;11.31;100.00
52949;BME280;38812;50.942;3.644;2023-03-23T04:20:46;100152.94;;;11.28;100.00
52949;BME280;38812;50.942;3.644;2023-03-23T04:23:14;100149.41;;;11.29;100.00
52949;BME280;38812;50.942;3.644;2023-03-23T04:25:48;100152.22;;;11.25;100.00
52949;BME280;38812;50.942;3.644;2023-03-23T04:28:17;100166.06;;;11.30;100.00
52949;BME280;38812;50.942;3.644;2023-03-23T04:30:44;100160.78;;;11.30;100.00
52949;BME280;38812;50.942;3.644;2023-03-23T04:33:11;100157.16;;;11.34;100.00
52949;BME280;38812;50.942;3.644;2023-03-23T04:35:41;100168.97;;;11.47;100.00
52949;BME280;38812;50.942;3.644;2023-03-23T04:38:07;100161.09;;;11.47;100.00
52949;BME280;38812;50.942;3.644;2023-03-23T04:40:41;100161.13;;;11.46;100.00
52949;BME280;38812;50.942;3.644;2023-03-23T04:43:06;100161.84;;;11.49;100.00
52949;BME280;38812;50.942;3.644;2023-03-23T04:45:33;100168.13;;;11.47;100.00
52949;BME280;38812;50.942;3.644;2023-03-23T04:47:59;100164.03;;;11.38;100.00
52949;BME280;38812;50.942;3.644;2023-03-23T04:50:30;100178.88;;;11.39;100.00
52949;BME280;38812;50.942;3.644;2023-03-23T04:52:58;100182.28;;;11.43;100.00
52949;BME280;38812;50.942;3.644;2023-03-23T04:55:25;100169.81;;;11.23;100.00
52949;BME280;38812;50.942;3.644;2023-03-23T04:57:51;100173.50;;;11.17;100.00
52949;BME280;38812;50.942;3.644;2023-03-23T05:00:18;100173.31;;;10.97;100.00
52949;BME280;38812;50.942;3.644;2023-03-23T05:02:46;100186.75;;;10.88;100.00
52949;BME280;38812;50.942;3.644;2023-03-23T05:05:13;100182.63;;;10.81;100.00
52949;BME280;38812;50.942;3.644;2023-03-23T05:07:40;100191.69;;;10.71;100.00
52949;BME280;38812;50.942;3.644;2023-03-23T05:10:07;100195.34;;;10.67;100.00
52949;BME280;38812;50.942;3.644;2023-03-23T05:12:34;100191.03;;;10.64;100.00
52949;BME280;38812;50.942;3.644;2023-03-23T05:15:00;100180.88;;;10.53;100.00
52949;BME280;38812;50.942;3.644;2023-03-23T05:17:26;100182.56;;;10.56;100.00
52949;BME280;38812;50.942;3.644;2023-03-23T05:19:52;100172.28;;;10.48;100.00
52949;BME280;38812;50.942;3.644;2023-03-23T05:22:17;100173.22;;;10.46;100.00
52949;BME280;38812;50.942;3.644;2023-03-23T05:24:43;100171.56;;;10.43;100.00
52949;BME280;38812;50.942;3.644;2023-03-23T05:27:09;100152.25;;;10.44;100.00
52949;BME280;38812;50.942;3.644;2023-03-23T05:29:35;100151.91;;;10.56;100.00
52949;BME280;38812;50.942;3.644;2023-03-23T05:32:06;100187.91;;;10.53;100.00
52949;BME280;38812;50.942;3.644;2023-03-23T05:34:33;100230.78;;;10.53;100.00
52949;BME280;38812;50.942;3.644;2023-03-23T05:36:59;100244.13;;;10.46;100.00
52949;BME280;38812;50.942;3.644;2023-03-23T05:39:25;100258.78;;;10.23;100.00
52949;BME280;38812;50.942;3.644;2023-03-23T05:41:51;100254.38;;;9.94;100.00
52949;BME280;38812;50.942;3.644;2023-03-23T05:44:17;100260.97;;;9.75;100.00
52949;BME280;38812;50.942;3.644;2023-03-23T05:46:43;100265.59;;;9.67;100.00
52949;BME280;38812;50.942;3.644;2023-03-23T05:49:08;100264.25;;;9.52;100.00
52949;BME280;38812;50.942;3.644;2023-03-23T05:51:34;100267.28;;;9.36;100.00
52949;BME280;38812;50.942;3.644;2023-03-23T05:54:00;100260.47;;;9.28;100.00
52949;BME280;38812;50.942;3.644;2023-03-23T05:56:25;100264.97;;;9.23;100.00
52949;BME280;38812;50.942;3.644;2023-03-23T05:58:51;100272.97;;;9.17;100.00
52949;BME280;38812;50.942;3.644;2023-03-23T06:01:17;100272.94;;;9.19;100.00
52949;BME280;38812;50.942;3.644;2023-03-23T06:03:43;100275.69;;;9.13;100.00
52949;BME280;38812;50.942;3.644;2023-03-23T06:06:10;100285.31;;;9.12;100.00
52949;BME280;38812;50.942;3.644;2023-03-23T06:08:37;100271.59;;;9.03;100.00
52949;BME280;38812;50.942;3.644;2023-03-23T06:11:03;100290.56;;;9.12;100.00
52949;BME280;38812;50.942;3.644;2023-03-23T06:13:29;100297.69;;;9.07;100.00
52949;BME280;38812;50.942;3.644;2023-03-23T06:15:55;100292.59;;;9.01;100.00
52949;BME280;38812;50.942;3.644;2023-03-23T06:18:24;100283.03;;;8.99;100.00
52949;BME280;38812;50.942;3.644;2023-03-23T06:20:50;100285.56;;;9.03;100.00
52949;BME280;38812;50.942;3.644;2023-03-23T06:23:16;100296.97;;;9.01;100.00
52949;BME280;38812;50.942;3.644;2023-03-23T06:25:43;100289.06;;;9.02;100.00
52949;BME280;38812;50.942;3.644;2023-03-23T06:28:09;100299.56;;;9.02;100.00
52949;BME280;38812;50.942;3.644;2023-03-23T06:30:35;100304.78;;;9.02;100.00
52949;BME280;38812;50.942;3.644;2023-03-23T06:33:00;100290.81;;;9.03;100.00
52949;BME280;38812;50.942;3.644;2023-03-23T06:35:27;100297.84;;;9.01;100.00
52949;BME280;38812;50.942;3.644;2023-03-23T06:37:52;100305.53;;;9.09;100.00
52949;BME280;38812;50.942;3.644;2023-03-23T06:40:19;100311.81;;;9.00;100.00
52949;BME280;38812;50.942;3.644;2023-03-23T06:42:44;100325.69;;;9.05;100.00
52949;BME280;38812;50.942;3.644;2023-03-23T06:45:10;100316.88;;;9.09;100.00
52949;BME280;38812;50.942;3.644;2023-03-23T06:47:36;100318.50;;;9.13;100.00
52949;BME280;38812;50.942;3.644;2023-03-23T06:50:01;100307.94;;;9.16;100.00
52949;BME280;38812;50.942;3.644;2023-03-23T06:52:27;100298.28;;;9.18;100.00
52949;BME280;38812;50.942;3.644;2023-03-23T06:54:53;100294.78;;;9.19;100.00
52949;BME280;38812;50.942;3.644;2023-03-23T06:57:19;100299.13;;;9.20;100.00
52949;BME280;38812;50.942;3.644;2023-03-23T06:59:45;100301.69;;;9.22;100.00
52949;BME280;38812;50.942;3.644;2023-03-23T07:02:11;100320.84;;;9.25;100.00
52949;BME280;38812;50.942;3.644;2023-03-23T07:04:39;100304.22;;;9.26;100.00
52949;BME280;38812;50.942;3.644;2023-03-23T07:07:07;100309.47;;;9.26;100.00
52949;BME280;38812;50.942;3.644;2023-03-23T07:09:33;100297.25;;;9.25;100.00
52949;BME280;38812;50.942;3.644;2023-03-23T07:11:58;100294.78;;;9.19;100.00
52949;BME280;38812;50.942;3.644;2023-03-23T07:14:24;100314.84;;;9.20;100.00
52949;BME280;38812;50.942;3.644;2023-03-23T07:16:49;100300.03;;;9.18;100.00
52949;BME280;38812;50.942;3.644;2023-03-23T07:19:15;100308.00;;;9.13;100.00
52949;BME280;38812;50.942;3.644;2023-03-23T07:21:41;100311.47;;;9.15;100.00
52949;BME280;38812;50.942;3.644;2023-03-23T07:24:11;100294.91;;;9.13;100.00
52949;BME280;38812;50.942;3.644;2023-03-23T07:26:39;100325.25;;;9.23;100.00
52949;BME280;38812;50.942;3.644;2023-03-23T07:29:05;100324.22;;;9.31;100.00
52949;BME280;38812;50.942;3.644;2023-03-23T07:31:31;100312.75;;;9.35;100.00
52949;BME280;38812;50.942;3.644;2023-03-23T07:33:57;100302.91;;;9.44;100.00
52949;BME280;38812;50.942;3.644;2023-03-23T07:36:22;100305.16;;;9.58;100.00
52949;BME280;38812;50.942;3.644;2023-03-23T07:38:48;100312.88;;;9.64;100.00
52949;BME280;38812;50.942;3.644;2023-03-23T07:41:13;100317.56;;;9.85;100.00
52949;BME280;38812;50.942;3.644;2023-03-23T07:43:38;100319.25;;;9.88;100.00
52949;BME280;38812;50.942;3.644;2023-03-23T07:46:04;100327.94;;;9.90;100.00
52949;BME280;38812;50.942;3.644;2023-03-23T07:48:30;100321.91;;;9.86;100.00
52949;BME280;38812;50.942;3.644;2023-03-23T07:50:56;100335.00;;;9.88;100.00
52949;BME280;38812;50.942;3.644;2023-03-23T07:53:21;100329.56;;;9.95;100.00
52949;BME280;38812;50.942;3.644;2023-03-23T07:55:49;100329.28;;;10.05;100.00
52949;BME280;38812;50.942;3.644;2023-03-23T07:58:14;100332.75;;;10.07;100.00
52949;BME280;38812;50.942;3.644;2023-03-23T08:00:45;100341.16;;;10.19;100.00
52949;BME280;38812;50.942;3.644;2023-03-23T08:03:10;100337.22;;;10.94;100.00
52949;BME280;38812;50.942;3.644;2023-03-23T08:05:36;100324.13;;;11.21;100.00
52949;BME280;38812;50.942;3.644;2023-03-23T08:08:02;100336.56;;;11.44;100.00
52949;BME280;38812;50.942;3.644;2023-03-23T08:10:27;100345.13;;;11.75;100.00
52949;BME280;38812;50.942;3.644;2023-03-23T08:12:55;100344.22;;;12.02;100.00
52949;BME280;38812;50.942;3.644;2023-03-23T08:15:22;100333.88;;;12.69;100.00
52949;BME280;38812;50.942;3.644;2023-03-23T08:17:48;100341.69;;;13.18;100.00
52949;BME280;38812;50.942;3.644;2023-03-23T08:20:14;100329.59;;;13.76;100.00
52949;BME280;38812;50.942;3.644;2023-03-23T08:22:43;100327.50;;;14.25;100.00
52949;BME280;38812;50.942;3.644;2023-03-23T08:25:13;100322.06;;;14.28;100.00
52949;BME280;38812;50.942;3.644;2023-03-23T08:27:39;100335.78;;;14.36;100.00
52949;BME280;38812;50.942;3.644;2023-03-23T08:30:13;100335.97;;;14.52;100.00
52949;BME280;38812;50.942;3.644;2023-03-23T08:32:39;100326.72;;;14.62;100.00
52949;BME280;38812;50.942;3.644;2023-03-23T08:35:07;100325.50;;;14.88;100.00
52949;BME280;38812;50.942;3.644;2023-03-23T08:37:34;100327.84;;;14.56;100.00
52949;BME280;38812;50.942;3.644;2023-03-23T08:39:59;100354.28;;;14.36;100.00
52949;BME280;38812;50.942;3.644;2023-03-23T08:42:25;100333.03;;;14.19;100.00
52949;BME280;38812;50.942;3.644;2023-03-23T08:44:52;100342.00;;;14.35;100.00
52949;BME280;38812;50.942;3.644;2023-03-23T08:47:18;100347.94;;;14.98;100.00
52949;BME280;38812;50.942;3.644;2023-03-23T08:49:43;100349.63;;;15.18;100.00
52949;BME280;38812;50.942;3.644;2023-03-23T08:52:10;100347.28;;;15.30;100.00
52949;BME280;38812;50.942;3.644;2023-03-23T08:54:36;100349.63;;;15.36;100.00
52949;BME280;38812;50.942;3.644;2023-03-23T08:57:02;100348.78;;;15.17;100.00
52949;BME280;38812;50.942;3.644;2023-03-23T08:59:28;100347.53;;;15.43;100.00
52949;BME280;38812;50.942;3.644;2023-03-23T09:01:54;100348.53;;;15.40;100.00
52949;BME280;38812;50.942;3.644;2023-03-23T09:04:20;100359.53;;;15.50;100.00
52949;BME280;38812;50.942;3.644;2023-03-23T09:06:46;100365.13;;;15.63;100.00
52949;BME280;38812;50.942;3.644;2023-03-23T09:09:12;100349.41;;;15.77;100.00
52949;BME280;38812;50.942;3.644;2023-03-23T09:11:38;100350.47;;;16.42;100.00
52949;BME280;38812;50.942;3.644;2023-03-23T09:14:05;100345.44;;;16.53;100.00
52949;BME280;38812;50.942;3.644;2023-03-23T09:16:32;100347.38;;;16.67;100.00
52949;BME280;38812;50.942;3.644;2023-03-23T09:18:58;100351.06;;;16.64;100.00
52949;BME280;38812;50.942;3.644;2023-03-23T09:21:25;100346.09;;;16.90;100.00
52949;BME280;38812;50.942;3.644;2023-03-23T09:23:51;100362.88;;;16.90;100.00
52949;BME280;38812;50.942;3.644;2023-03-23T09:26:17;100362.53;;;16.81;100.00
52949;BME280;38812;50.942;3.644;2023-03-23T09:28:43;100357.72;;;16.71;100.00
52949;BME280;38812;50.942;3.644;2023-03-23T09:31:09;100359.81;;;16.98;100.00
52949;BME280;38812;50.942;3.644;2023-03-23T09:33:36;100349.28;;;17.12;100.00
52949;BME280;38812;50.942;3.644;2023-03-23T09:36:02;100352.47;;;16.37;100.00
52949;BME280;38812;50.942;3.644;2023-03-23T09:38:28;100372.53;;;16.42;100.00
52949;BME280;38812;50.942;3.644;2023-03-23T09:41:22;100382.63;;;16.69;100.00
52949;BME280;38812;50.942;3.644;2023-03-23T09:46:43;100373.09;;;16.15;100.00
52949;BME280;38812;50.942;3.644;2023-03-23T09:49:17;100364.59;;;15.91;100.00
52949;BME280;38812;50.942;3.644;2023-03-23T09:51:46;100364.06;;;16.01;100.00
52949;BME280;38812;50.942;3.644;2023-03-23T09:54:27;100360.59;;;17.00;100.00
52949;BME280;38812;50.942;3.644;2023-03-23T09:56:54;100353.47;;;17.16;100.00
52949;BME280;38812;50.942;3.644;2023-03-23T09:59:28;100357.03;;;16.18;100.00
52949;BME280;38812;50.942;3.644;2023-03-23T10:02:10;100365.75;;;15.68;100.00
52949;BME280;38812;50.942;3.644;2023-03-23T10:04:49;100366.63;;;15.50;100.00
52949;BME280;38812;50.942;3.644;2023-03-23T10:07:19;100353.34;;;15.32;100.00
52949;BME280;38812;50.942;3.644;2023-03-23T10:09:48;100370.47;;;15.61;100.00
52949;BME280;38812;50.942;3.644;2023-03-23T10:12:27;100375.97;;;15.93;100.00
52949;BME280;38812;50.942;3.644;2023-03-23T10:15:10;100371.53;;;15.76;100.00
52949;BME280;38812;50.942;3.644;2023-03-23T10:22:55;100375.00;;;15.40;100.00
52949;BME280;38812;50.942;3.644;2023-03-23T10:25:28;100370.03;;;15.34;100.00
52949;BME280;38812;50.942;3.644;2023-03-23T10:28:13;100362.41;;;14.91;100.00
52949;BME280;38812;50.942;3.644;2023-03-23T10:30:43;100382.75;;;14.70;100.00
52949;BME280;38812;50.942;3.644;2023-03-23T10:33:25;100371.03;;;14.75;100.00
52949;BME280;38812;50.942;3.644;2023-03-23T10:36:01;100375.91;;;15.77;100.00
52949;BME280;38812;50.942;3.644;2023-03-23T10:38:41;100369.66;;;17.11;100.00
52949;BME280;38812;50.942;3.644;2023-03-23T10:41:17;100358.34;;;16.92;100.00
52949;BME280;38812;50.942;3.644;2023-03-23T10:43:44;100362.13;;;17.35;100.00
52949;BME280;38812;50.942;3.644;2023-03-23T10:46:46;100360.34;;;17.04;100.00
52949;BME280;38812;50.942;3.644;2023-03-23T10:49:26;100360.09;;;16.60;100.00
52949;BME280;38812;50.942;3.644;2023-03-23T10:54:39;100348.63;;;15.75;100.00
52949;BME280;38812;50.942;3.644;2023-03-23T10:57:23;100360.38;;;15.33;100.00
52949;BME280;38812;50.942;3.644;2023-03-23T10:59:50;100357.97;;;15.10;100.00
52949;BME280;38812;50.942;3.644;2023-03-23T11:02:20;100362.28;;;14.73;100.00
52949;BME280;38812;50.942;3.644;2023-03-23T11:05:01;100356.56;;;14.45;100.00
52949;BME280;38812;50.942;3.644;2023-03-23T11:07:29;100343.09;;;14.70;100.00
52949;BME280;38812;50.942;3.644;2023-03-23T11:10:15;100348.31;;;14.71;100.00
52949;BME280;38812;50.942;3.644;2023-03-23T11:12:46;100365.00;;;14.53;100.00
52949;BME280;38812;50.942;3.644;2023-03-23T11:15:28;100369.22;;;14.37;100.00
52949;BME280;38812;50.942;3.644;2023-03-23T11:18:05;100354.84;;;14.24;100.00
52949;BME280;38812;50.942;3.644;2023-03-23T11:20:44;100351.09;;;14.68;100.00
52949;BME280;38812;50.942;3.644;2023-03-23T11:23:22;100364.59;;;14.81;100.00
52949;BME280;38812;50.942;3.644;2023-03-23T11:28:27;100338.19;;;14.22;100.00
52949;BME280;38812;50.942;3.644;2023-03-23T11:30:55;100324.44;;;14.14;100.00
52949;BME280;38812;50.942;3.644;2023-03-23T11:33:21;100328.44;;;14.03;100.00
52949;BME280;38812;50.942;3.644;2023-03-23T11:35:52;100341.56;;;14.05;100.00
52949;BME280;38812;50.942;3.644;2023-03-23T11:38:20;100342.88;;;14.15;100.00
52949;BME280;38812;50.942;3.644;2023-03-23T11:40:51;100343.75;;;14.16;100.00
52949;BME280;38812;50.942;3.644;2023-03-23T11:43:20;100347.50;;;14.10;100.00
52949;BME280;38812;50.942;3.644;2023-03-23T11:48:55;100338.94;;;14.64;100.00
52949;BME280;38812;50.942;3.644;2023-03-23T11:55:07;100337.09;;;14.07;100.00
52949;BME280;38812;50.942;3.644;2023-03-23T11:57:11;100332.13;;;13.99;100.00
52949;BME280;38812;50.942;3.644;2023-03-23T11:59:38;100362.47;;;14.30;100.00
52949;BME280;38812;50.942;3.644;2023-03-23T12:08:23;100321.03;;;15.62;100.00
52949;BME280;38812;50.942;3.644;2023-03-23T12:19:33;100318.63;;;15.57;100.00
52949;BME280;38812;50.942;3.644;2023-03-23T12:36:24;100359.72;;;13.28;100.00
52949;BME280;38812;50.942;3.644;2023-03-23T12:44:09;100366.25;;;13.42;100.00
52949;BME280;38812;50.942;3.644;2023-03-23T12:47:06;100385.75;;;13.59;100.00
52949;BME280;38812;50.942;3.644;2023-03-23T12:55:17;100389.44;;;14.18;100.00
52949;BME280;38812;50.942;3.644;2023-03-23T12:57:55;100395.66;;;14.17;100.00
52949;BME280;38812;50.942;3.644;2023-03-23T13:00:33;100409.88;;;13.92;100.00
52949;BME280;38812;50.942;3.644;2023-03-23T13:03:27;100372.59;;;13.58;100.00
52949;BME280;38812;50.942;3.644;2023-03-23T13:08:30;100361.28;;;13.11;100.00
52949;BME280;38812;50.942;3.644;2023-03-23T13:11:02;100370.97;;;13.10;100.00
52949;BME280;38812;50.942;3.644;2023-03-23T13:13:51;100382.88;;;12.98;100.00
52949;BME280;38812;50.942;3.644;2023-03-23T13:22:21;100375.91;;;12.49;100.00
52949;BME280;38812;50.942;3.644;2023-03-23T13:24:53;100378.16;;;12.35;100.00
52949;BME280;38812;50.942;3.644;2023-03-23T13:27:26;100367.16;;;12.24;100.00
52949;BME280;38812;50.942;3.644;2023-03-23T13:29:57;100364.53;;;12.24;100.00
52949;BME280;38812;50.942;3.644;2023-03-23T13:32:43;100370.75;;;12.21;100.00
52949;BME280;38812;50.942;3.644;2023-03-23T13:35:14;100353.19;;;12.22;100.00
52949;BME280;38812;50.942;3.644;2023-03-23T13:37:46;100373.84;;;12.34;100.00
52949;BME280;38812;50.942;3.644;2023-03-23T13:40:27;100363.16;;;12.37;100.00
52949;BME280;38812;50.942;3.644;2023-03-23T13:42:57;100378.66;;;12.46;100.00
52949;BME280;38812;50.942;3.644;2023-03-23T13:50:59;100302.91;;;12.98;100.00
52949;BME280;38812;50.942;3.644;2023-03-23T13:53:29;100290.34;;;13.26;100.00
52949;BME280;38812;50.942;3.644;2023-03-23T13:56:19;100297.69;;;13.82;100.00
52949;BME280;38812;50.942;3.644;2023-03-23T13:59:06;100306.09;;;14.11;100.00
52949;BME280;38812;50.942;3.644;2023-03-23T14:01:37;100285.31;;;14.03;100.00
52949;BME280;38812;50.942;3.644;2023-03-23T14:04:10;100299.03;;;13.70;100.00
52949;BME280;38812;50.942;3.644;2023-03-23T14:06:39;100313.88;;;14.14;100.00
52949;BME280;38812;50.942;3.644;2023-03-23T14:09:11;100311.44;;;14.09;100.00
52949;BME280;38812;50.942;3.644;2023-03-23T14:12:17;100312.59;;;13.83;100.00
52949;BME280;38812;50.942;3.644;2023-03-23T14:14:47;100308.50;;;13.76;100.00
52949;BME280;38812;50.942;3.644;2023-03-23T14:17:40;100312.59;;;13.63;100.00
52949;BME280;38812;50.942;3.644;2023-03-23T14:20:06;100304.44;;;13.67;100.00
52949;BME280;38812;50.942;3.644;2023-03-23T14:22:35;100298.91;;;13.53;100.00
52949;BME280;38812;50.942;3.644;2023-03-23T14:25:16;100302.53;;;13.51;100.00
52949;BME280;38812;50.942;3.644;2023-03-23T14:27:42;100285.09;;;13.47;100.00
52949;BME280;38812;50.942;3.644;2023-03-23T14:30:14;100273.63;;;13.68;100.00
52949;BME280;38812;50.942;3.644;2023-03-23T14:32:40;100271.16;;;13.85;100.00